Time;durP1;ratioP1;P1;durP2;ratioP2;P2;SDS_P1;SDS_P2;PMS_P1;PMS_P2;Temp;Humidity;BMP_temperature;BMP_pressure;BME280_temperature;BME280_humidity;BME280_pressure;Samples;Min_cycle;Max_cycle;Signal;HPM_P1;HPM_P2
2022/03/24 00:00:07;;;;;;;62.88;43.20;;;8.70;99.90;;;;;;5111052;28;20043;-76
2022/03/24 00:02:33;;;;;;;60.30;42.15;;;8.70;99.90;;;;;;5111157;28;20043;-76
2022/03/24 00:04:58;;;;;;;60.40;42.90;;;8.60;99.90;;;;;;5091476;28;20050;-76
2022/03/24 00:07:24;;;;;;;67.82;44.58;;;8.60;99.90;;;;;;5108109;28;20059;-76
2022/03/24 00:09:49;;;;;;;60.53;41.80;;;8.50;99.90;;;;;;5090737;28;20100;-76
2022/03/24 00:12:16;;;;;;;62.25;42.55;;;8.50;99.90;;;;;;5107749;28;20444;-76
2022/03/24 00:14:42;;;;;;;63.83;44.63;;;8.50;99.90;;;;;;5090945;28;20048;-76
2022/03/24 00:17:08;;;;;;;62.22;42.40;;;8.50;99.90;;;;;;5090331;28;20051;-77
2022/03/24 00:19:34;;;;;;;58.60;40.13;;;8.40;99.90;;;;;;5090576;28;20197;-76
2022/03/24 00:22:00;;;;;;;58.72;42.00;;;8.40;99.90;;;;;;5090899;28;20130;-76
2022/03/24 00:24:26;;;;;;;62.70;42.03;;;8.40;99.90;;;;;;5109469;28;20048;-76
2022/03/24 00:26:52;;;;;;;60.63;42.85;;;8.30;99.90;;;;;;5094274;28;20423;-76
2022/03/24 00:29:18;;;;;;;59.38;42.35;;;8.30;99.90;;;;;;5094515;28;20394;-76
2022/03/24 00:31:44;;;;;;;63.95;43.00;;;8.30;99.90;;;;;;5094292;28;20126;-76
2022/03/24 00:34:10;;;;;;;74.70;44.63;;;8.30;99.90;;;;;;5094488;28;20126;-76
2022/03/24 00:36:36;;;;;;;63.78;44.25;;;8.30;99.90;;;;;;5112641;28;20731;-77
2022/03/24 00:39:03;;;;;;;63.10;42.97;;;8.20;99.90;;;;;;5093871;28;20130;-77
2022/03/24 00:41:29;;;;;;;66.57;45.15;;;8.20;99.90;;;;;;5112426;28;20048;-76
2022/03/24 00:43:56;;;;;;;63.15;42.58;;;8.20;99.90;;;;;;5093992;28;20097;-77
2022/03/24 00:46:23;;;;;;;63.88;44.35;;;8.20;99.90;;;;;;5112089;28;20079;-76
2022/03/24 00:48:49;;;;;;;66.80;45.58;;;8.10;99.90;;;;;;5094404;28;20146;-77
2022/03/24 00:51:15;;;;;;;63.92;44.70;;;8.10;99.90;;;;;;5093783;28;20047;-76
2022/03/24 00:53:41;;;;;;;64.15;43.60;;;8.10;99.90;;;;;;5093756;28;20039;-76
2022/03/24 00:56:07;;;;;;;62.92;42.95;;;8.10;99.90;;;;;;5093668;28;20078;-76
2022/03/24 00:58:33;;;;;;;66.47;44.78;;;8.10;99.90;;;;;;5094275;28;20473;-76
2022/03/24 01:00:58;;;;;;;64.38;44.55;;;8.00;99.90;;;;;;5094061;28;20036;-77
2022/03/24 01:03:24;;;;;;;64.95;45.08;;;8.00;99.90;;;;;;5083165;27;20050;-76
2022/03/24 01:05:49;;;;;;;62.95;42.85;;;8.00;99.90;;;;;;5132254;27;20090;-76
2022/03/24 01:08:17;;;;;;;72.53;56.73;;;8.00;99.90;;;;;;5113102;27;20888;-77
2022/03/24 01:10:43;;;;;;;72.35;58.40;;;7.90;99.90;;;;;;5112685;27;20460;-77
2022/03/24 01:13:09;;;;;;;68.97;55.92;;;7.90;99.90;;;;;;5130707;27;20872;-77
2022/03/24 01:15:35;;;;;;;68.45;55.55;;;7.80;99.90;;;;;;5095631;27;20456;-77
2022/03/24 01:18:02;;;;;;;71.18;58.80;;;7.80;99.90;;;;;;5112514;27;20484;-77
2022/03/24 01:20:29;;;;;;;70.13;46.38;;;7.80;99.90;;;;;;5113764;27;20122;-77
2022/03/24 01:22:55;;;;;;;65.90;45.00;;;7.80;99.90;;;;;;5113692;27;20095;-77
2022/03/24 01:25:23;;;;;;;67.00;44.95;;;7.80;99.90;;;;;;5132173;27;20079;-77
2022/03/24 01:27:49;;;;;;;67.85;46.20;;;7.70;99.90;;;;;;5113310;27;20050;-77
2022/03/24 01:30:15;;;;;;;64.82;45.00;;;7.70;99.90;;;;;;5131857;27;20089;-77
2022/03/24 01:32:41;;;;;;;69.78;45.75;;;7.60;99.90;;;;;;5113660;27;20079;-77
2022/03/24 01:35:07;;;;;;;65.50;45.38;;;7.60;99.90;;;;;;5132178;27;20043;-77
2022/03/24 01:37:33;;;;;;;;;;;7.50;99.90;;;;;;5131050;27;20047;-77
2022/03/24 01:39:59;;;;;;;;;;;7.50;99.90;;;;;;5132217;27;19919;-77
2022/03/24 01:42:26;;;;;;;;;;;7.50;99.90;;;;;;5132627;27;20461;-77
2022/03/24 01:44:55;;;;;;;64.90;43.58;;;7.50;99.90;;;;;;5131601;27;20397;-77
2022/03/24 01:47:21;;;;;;;63.40;43.97;;;7.50;99.90;;;;;;5108461;28;20042;-77
2022/03/24 01:49:50;;;;;;;64.43;43.45;;;7.50;99.90;;;;;;5115229;27;20114;-77
2022/03/24 01:52:18;;;;;;;63.58;42.45;;;7.50;99.90;;;;;;5109955;27;20047;-77
2022/03/24 01:54:46;;;;;;;62.38;43.83;;;7.50;99.90;;;;;;5110284;28;20047;-77
2022/03/24 01:57:14;;;;;;;64.18;43.72;;;7.40;99.90;;;;;;5097517;27;20039;-77
2022/03/24 01:59:40;;;;;;;69.97;45.97;;;7.40;99.90;;;;;;5129865;27;20103;-77
2022/03/24 02:02:07;;;;;;;66.25;43.72;;;7.40;99.90;;;;;;5111608;27;20489;-77
2022/03/24 02:04:38;;;;;;;63.78;42.53;;;7.30;99.90;;;;;;5130145;27;20079;-77
2022/03/24 02:07:05;;;;;;;65.60;43.70;;;7.30;99.90;;;;;;5112168;27;20041;-77
2022/03/24 02:09:31;;;;;;;64.00;44.38;;;7.20;99.90;;;;;;5074076;28;20051;-77
2022/03/24 02:11:57;;;;;;;62.28;43.75;;;7.10;99.90;;;;;;5109697;28;20413;-77
2022/03/24 02:14:23;;;;;;;64.15;43.88;;;7.10;99.90;;;;;;5073709;28;20040;-77
2022/03/24 02:16:49;;;;;;;69.43;45.40;;;7.00;99.90;;;;;;5109259;28;20479;-77
2022/03/24 02:19:24;;;;;;;68.75;45.05;;;7.00;99.90;;;;;;5109479;28;20631;-77
2022/03/24 02:21:52;;;;;;;67.78;45.85;;;7.00;99.90;;;;;;5090964;28;20048;-77
2022/03/24 02:24:20;;;;;;;65.80;44.38;;;7.00;99.90;;;;;;5109068;27;20054;-77
2022/03/24 02:26:47;;;;;;;65.35;44.40;;;7.00;99.90;;;;;;5129821;27;20073;-77
2022/03/24 02:29:15;;;;;;;65.63;43.40;;;7.00;99.90;;;;;;5129309;27;20051;-77
2022/03/24 02:31:46;;;;;;;60.60;42.25;;;7.00;99.90;;;;;;5111213;27;20153;-77
2022/03/24 02:37:05;;;;;;;65.53;43.67;;;7.00;99.90;;;;;;5129554;27;20081;-77
2022/03/24 02:39:31;;;;;;;67.47;43.72;;;7.00;99.90;;;;;;5110913;27;20518;-77
2022/03/24 02:41:59;;;;;;;63.42;42.78;;;6.90;99.90;;;;;;5129364;27;20074;-77
2022/03/24 02:44:27;;;;;;;65.32;42.92;;;7.00;99.90;;;;;;5110721;27;20055;-77
2022/03/24 02:46:55;;;;;;;66.00;44.58;;;6.90;99.90;;;;;;5110333;27;20047;-77
2022/03/24 02:49:26;;;;;;;68.22;44.05;;;6.90;99.90;;;;;;5099763;28;20042;-77
2022/03/24 02:51:58;;;;;;;64.60;43.83;;;6.90;99.90;;;;;;5095743;27;20071;-77
2022/03/24 02:54:23;;;;;;;65.78;44.22;;;6.90;99.90;;;;;;5111053;27;20537;-77
2022/03/24 02:56:49;;;;;;;64.40;44.28;;;6.90;99.90;;;;;;5117956;27;20108;-77
2022/03/24 02:59:15;;;;;;;65.15;42.92;;;6.90;99.90;;;;;;5090658;28;20040;-77
2022/03/24 03:01:44;;;;;;;63.03;42.78;;;6.80;99.90;;;;;;5090647;28;20039;-77
2022/03/24 03:04:10;;;;;;;63.55;42.88;;;6.80;99.90;;;;;;5090222;28;20043;-77
2022/03/24 03:06:36;;;;;;;68.85;45.30;;;6.80;99.90;;;;;;5090888;28;20048;-77
2022/03/24 03:09:04;;;;;;;66.68;44.50;;;6.80;99.90;;;;;;5109695;28;20146;-77
2022/03/24 03:11:35;;;;;;;65.93;43.90;;;6.80;99.90;;;;;;5091500;28;20425;-77
2022/03/24 03:14:02;;;;;;;62.28;41.22;;;6.70;99.90;;;;;;5091516;28;20425;-77
2022/03/24 03:16:28;;;;;;;64.63;43.08;;;6.70;99.90;;;;;;5090989;28;20043;-77
2022/03/24 03:18:55;;;;;;;62.22;41.72;;;6.70;99.90;;;;;;5109834;28;20047;-77
2022/03/24 03:21:21;;;;;;;66.10;44.42;;;6.60;99.90;;;;;;5091153;28;20040;-77
2022/03/24 03:23:47;;;;;;;66.85;44.55;;;6.60;99.90;;;;;;5109468;28;20044;-77
2022/03/24 03:26:17;;;;;;;64.55;41.90;;;6.60;99.90;;;;;;5091050;28;20119;-77
2022/03/24 03:28:44;;;;;;;65.82;43.65;;;6.60;99.90;;;;;;5109544;28;20068;-77
2022/03/24 03:31:10;;;;;;;61.90;43.05;;;6.50;99.90;;;;;;5109344;28;20047;-77
2022/03/24 03:33:36;;;;;;;65.03;43.83;;;6.50;99.90;;;;;;5090753;28;20075;-77
2022/03/24 03:36:05;;;;;;;64.90;43.92;;;6.50;99.90;;;;;;5109393;28;20028;-77
2022/03/24 03:38:33;;;;;;;68.38;44.08;;;6.50;99.90;;;;;;5091506;28;20095;-77
2022/03/24 03:41:02;;;;;;;60.72;42.65;;;6.50;99.90;;;;;;5109060;28;20060;-77
2022/03/24 03:43:28;;;;;;;61.72;42.88;;;6.50;99.90;;;;;;5109265;28;20114;-77
2022/03/24 03:45:54;;;;;;;61.83;41.88;;;6.40;99.90;;;;;;5109545;28;20051;-77
2022/03/24 03:48:19;;;;;;;61.67;41.97;;;6.40;99.90;;;;;;5090706;28;20044;-77
2022/03/24 03:50:45;;;;;;;63.58;44.03;;;6.40;99.90;;;;;;5109440;28;20052;-77
2022/03/24 03:53:11;;;;;;;60.85;42.17;;;6.40;99.90;;;;;;5091283;28;20047;-77
2022/03/24 03:55:37;;;;;;;66.47;44.40;;;6.40;99.90;;;;;;5109224;28;20051;-77
2022/03/24 03:58:04;;;;;;;69.13;43.78;;;6.30;99.90;;;;;;5090818;28;20043;-77
2022/03/24 04:03:15;;;;;;;67.93;44.33;;;6.30;99.90;;;;;;5094746;28;20047;-77
2022/03/24 04:05:43;;;;;;;66.97;44.50;;;6.30;99.90;;;;;;5113211;28;20075;-77
2022/03/24 04:08:10;;;;;;;66.13;44.28;;;6.30;99.90;;;;;;5113167;28;20047;-77
2022/03/24 04:10:35;;;;;;;66.18;43.65;;;6.30;99.90;;;;;;5094882;28;20409;-77
2022/03/24 04:13:02;;;;;;;70.38;45.65;;;6.30;99.90;;;;;;5112902;28;20051;-78
2022/03/24 04:15:28;;;;;;;66.82;44.97;;;6.30;99.90;;;;;;5112671;28;20050;-77
2022/03/24 04:17:53;;;;;;;64.35;42.97;;;6.30;99.90;;;;;;5112071;28;20039;-77
2022/03/24 04:20:23;;;;;;;63.42;43.42;;;6.20;99.90;;;;;;5111817;28;20059;-77
2022/03/24 04:22:53;;;;;;;66.93;43.97;;;6.20;99.90;;;;;;5114118;27;20043;-77
2022/03/24 04:25:20;;;;;;;68.82;44.53;;;6.20;99.90;;;;;;5110511;28;20079;-77
2022/03/24 04:27:46;;;;;;;61.58;42.47;;;6.20;99.90;;;;;;5111526;27;20047;-76
2022/03/24 04:30:12;;;;;;;67.35;44.80;;;6.20;99.90;;;;;;5111969;27;20402;-77
2022/03/24 04:32:38;;;;;;;63.85;44.17;;;6.20;99.90;;;;;;5110952;27;20051;-77
2022/03/24 04:35:06;;;;;;;61.03;42.08;;;6.20;99.90;;;;;;5111756;28;20450;-77
2022/03/24 04:37:32;;;;;;;66.32;42.55;;;6.10;99.90;;;;;;5093852;28;20048;-77
2022/03/24 04:39:57;;;;;;;66.32;42.83;;;6.10;99.90;;;;;;5110657;28;20052;-77
2022/03/24 04:42:23;;;;;;;66.32;43.55;;;6.10;99.90;;;;;;5110408;28;20459;-77
2022/03/24 04:44:48;;;;;;;;;;;6.00;99.90;;;;;;5110693;28;20055;-77
2022/03/24 04:47:15;;;;;;;68.57;43.88;;;6.00;99.90;;;;;;5110807;28;19966;-77
2022/03/24 04:49:41;;;;;;;67.05;44.85;;;6.00;99.90;;;;;;5076253;28;20546;-77
2022/03/24 04:52:07;;;;;;;69.65;44.42;;;5.90;99.90;;;;;;5111297;28;20043;-77
2022/03/24 04:54:34;;;;;;;66.53;43.80;;;5.90;99.90;;;;;;5110974;28;20079;-77
2022/03/24 04:56:59;;;;;;;73.13;45.60;;;5.90;99.90;;;;;;5107248;27;20055;-77
2022/03/24 04:59:25;;;;;;;68.95;44.80;;;5.90;99.90;;;;;;5131917;27;20046;-77
2022/03/24 05:01:51;;;;;;;70.55;45.72;;;5.90;99.90;;;;;;5113349;27;20131;-77
2022/03/24 05:04:17;;;;;;;69.47;44.53;;;5.90;99.90;;;;;;5131633;27;20047;-77
2022/03/24 05:06:42;;;;;;;63.95;43.40;;;5.90;99.90;;;;;;5113324;27;20043;-77
2022/03/24 05:09:08;;;;;;;66.32;44.40;;;5.80;99.90;;;;;;5131510;27;20042;-77
2022/03/24 05:11:34;;;;;;;67.78;43.00;;;5.80;99.90;;;;;;5131195;27;20669;-77
2022/03/24 05:14:01;;;;;;;63.00;43.33;;;5.80;99.90;;;;;;5112462;27;20047;-77
2022/03/24 05:16:28;;;;;;;67.65;44.60;;;5.70;99.90;;;;;;5113188;27;20055;-77
2022/03/24 05:18:54;;;;;;;73.63;46.17;;;5.70;99.90;;;;;;5112876;27;20118;-77
2022/03/24 05:21:20;;;;;;;;;;;5.70;99.90;;;;;;5112837;27;20047;-77
2022/03/24 05:23:46;;;;;;;67.57;44.42;;;5.70;99.90;;;;;;5131516;27;20353;-78
2022/03/24 05:26:11;;;;;;;65.93;44.15;;;5.70;99.90;;;;;;5130989;27;20070;-77
2022/03/24 05:28:37;;;;;;;65.32;45.05;;;5.70;99.90;;;;;;5112710;27;20082;-77
2022/03/24 05:31:03;;;;;;;65.32;43.88;;;5.70;99.90;;;;;;5130844;27;20126;-77
2022/03/24 05:33:28;;;;;;;68.32;45.67;;;5.70;99.90;;;;;;5131170;27;20454;-77
2022/03/24 05:35:54;;;;;;;83.50;62.87;;;5.70;99.90;;;;;;5129459;27;20862;-77
2022/03/24 05:38:19;;;;;;;71.18;49.10;;;5.70;99.90;;;;;;5130130;27;20465;-77
2022/03/24 05:40:45;;;;;;;72.00;48.00;;;5.60;99.90;;;;;;5112631;27;20047;-78
2022/03/24 05:43:11;;;;;;;71.65;46.80;;;5.60;99.90;;;;;;5130869;27;20137;-77
2022/03/24 05:45:36;;;;;;;68.22;46.03;;;5.60;99.90;;;;;;5130561;27;20043;-77
2022/03/24 05:48:02;;;;;;;66.57;44.20;;;5.60;99.90;;;;;;5130583;27;20042;-77
2022/03/24 05:50:29;;;;;;;70.78;47.75;;;5.60;99.90;;;;;;5112608;27;20645;-77
2022/03/24 05:52:56;;;;;;;69.32;45.30;;;5.60;99.90;;;;;;5130638;27;20127;-77
2022/03/24 05:55:23;;;;;;;69.78;45.53;;;5.60;99.90;;;;;;5130213;27;20050;-77
2022/03/24 05:57:49;;;;;;;72.60;47.55;;;5.60;99.90;;;;;;5112084;27;20055;-77
2022/03/24 06:00:18;;;;;;;72.43;47.25;;;5.60;99.90;;;;;;5112081;27;20054;-78
2022/03/24 06:02:43;;;;;;;71.93;47.63;;;5.70;99.90;;;;;;5130965;27;20134;-78
2022/03/24 06:05:11;;;;;;;79.97;50.15;;;5.70;99.90;;;;;;5111751;27;20154;-78
2022/03/24 06:07:37;;;;;;;69.82;45.83;;;5.70;99.90;;;;;;5111817;27;20051;-79
2022/03/24 06:10:03;;;;;;;70.55;46.88;;;5.70;99.90;;;;;;5130379;27;20127;-78
2022/03/24 06:12:28;;;;;;;70.28;46.90;;;5.70;99.90;;;;;;5111998;27;20043;-78
2022/03/24 06:14:54;;;;;;;71.85;44.70;;;5.80;99.90;;;;;;5111367;27;20469;-78
2022/03/24 06:17:20;;;;;;;75.03;47.67;;;5.80;99.90;;;;;;5130306;27;20047;-78
2022/03/24 06:19:47;;;;;;;70.22;45.05;;;5.80;99.90;;;;;;5130349;27;20408;-78
2022/03/24 06:22:13;;;;;;;73.35;48.67;;;5.80;99.90;;;;;;5110673;27;20384;-78
2022/03/24 06:24:39;;;;;;;77.13;50.03;;;5.90;99.90;;;;;;5111685;27;20096;-77
2022/03/24 06:27:05;;;;;;;73.80;49.58;;;5.90;99.90;;;;;;5111737;27;20047;-78
2022/03/24 06:29:31;;;;;;;73.28;49.90;;;6.00;99.90;;;;;;5112029;27;20085;-78
2022/03/24 06:31:57;;;;;;;77.70;49.35;;;6.00;99.90;;;;;;5111754;27;20130;-78
2022/03/24 06:34:23;;;;;;;81.50;49.17;;;6.00;99.90;;;;;;5111429;27;20075;-79
2022/03/24 06:36:50;;;;;;;74.10;49.08;;;6.10;99.90;;;;;;5111401;27;20043;-78
2022/03/24 06:39:16;;;;;;;79.07;48.92;;;6.10;99.90;;;;;;5110643;27;20051;-78
2022/03/24 06:41:42;;;;;;;76.97;49.78;;;6.20;99.90;;;;;;5111384;27;20126;-78
2022/03/24 06:44:09;;;;;;;76.40;48.83;;;6.30;99.90;;;;;;5111319;27;20196;-78
2022/03/24 06:46:35;;;;;;;74.85;49.08;;;6.40;99.90;;;;;;5111302;27;20051;-78
2022/03/24 06:49:03;;;;;;;76.40;49.35;;;6.40;99.90;;;;;;5110853;27;20054;-78
2022/03/24 06:51:29;;;;;;;79.88;51.70;;;6.50;99.90;;;;;;5111553;27;20035;-78
2022/03/24 06:53:55;;;;;;;87.72;53.72;;;6.50;99.90;;;;;;5111021;27;20047;-78
2022/03/24 06:56:21;;;;;;;83.40;52.00;;;6.70;99.90;;;;;;5119973;27;20043;-78
2022/03/24 06:58:47;;;;;;;82.70;53.40;;;6.70;99.90;;;;;;5108743;28;20421;-78
2022/03/24 07:01:12;;;;;;;83.05;52.50;;;6.80;99.90;;;;;;5074122;28;20401;-78
2022/03/24 07:03:38;;;;;;;94.70;70.43;;;6.90;99.90;;;;;;5089214;28;20435;-78
2022/03/24 07:06:04;;;;;;;90.70;57.05;;;7.00;99.90;;;;;;5108506;28;20043;-78
2022/03/24 07:08:30;;;;;;;84.60;55.00;;;7.00;99.90;;;;;;5090489;28;20127;-78
2022/03/24 07:10:55;;;;;;;81.18;52.92;;;7.10;99.90;;;;;;5090539;28;20035;-78
2022/03/24 07:13:21;;;;;;;80.45;52.25;;;7.20;99.90;;;;;;5091544;28;20035;-77
2022/03/24 07:15:47;;;;;;;;;;;7.30;99.90;;;;;;5109926;28;20489;-78
2022/03/24 07:18:13;;;;;;;;;;;7.40;99.90;;;;;;5091272;28;19932;-78
2022/03/24 07:20:39;;;;;;;;;;;7.50;99.90;;;;;;5092012;28;20033;-78
2022/03/24 07:23:06;;;;;;;;;;;7.50;99.90;;;;;;5091422;28;20018;-78
2022/03/24 07:25:32;;;;;;;;;;;7.60;99.90;;;;;;5091660;28;19924;-78
2022/03/24 07:27:59;;;;;;;;;;;7.70;99.90;;;;;;5091685;28;19919;-78
2022/03/24 07:30:25;;;;;;;;;;;7.80;99.90;;;;;;5109809;28;19985;-78
2022/03/24 07:32:53;;;;;;;63.00;41.47;;;7.90;99.90;;;;;;5091298;28;19923;-78
2022/03/24 07:35:20;;;;;;;72.28;55.13;;;8.00;99.90;;;;;;5110592;28;20408;-78
2022/03/24 07:37:50;;;;;;;74.35;56.15;;;8.10;99.90;;;;;;5094453;28;20805;-78
2022/03/24 07:40:18;;;;;;;69.18;54.92;;;8.20;99.90;;;;;;5112215;28;20433;-78
2022/03/24 07:42:49;;;;;;;58.65;40.28;;;8.20;99.90;;;;;;5095268;28;20286;-78
2022/03/24 07:45:15;;;;;;;60.15;39.60;;;8.30;99.90;;;;;;5094893;28;20398;-78
2022/03/24 07:48:20;;;;;;;63.05;38.75;;;8.40;99.90;;;;;;5094744;28;20569;-78
2022/03/24 07:50:48;;;;;;;54.80;37.05;;;8.50;99.90;;;;;;5094590;28;20059;-78
2022/03/24 07:53:14;;;;;;;63.70;38.50;;;8.70;99.90;;;;;;5112767;28;20043;-78
2022/03/24 07:55:45;;;;;;;53.80;36.45;;;8.80;99.90;;;;;;5116345;27;20043;-78
2022/03/24 07:58:12;;;;;;;53.33;36.70;;;8.80;99.90;;;;;;5133787;27;20046;-78
2022/03/24 08:00:37;;;;;;;;;;;8.90;99.90;;;;;;5134091;27;20073;-78
2022/03/24 08:03:06;;;;;;;;;;;9.00;99.90;;;;;;5133771;27;19925;-78
2022/03/24 08:05:31;;;;;;;;;;;9.10;99.90;;;;;;5116162;27;19945;-78
2022/03/24 08:07:57;;;;;;;50.28;32.67;;;9.20;99.90;;;;;;5133805;27;20334;-78
2022/03/24 08:10:23;;;;;;;51.60;33.67;;;9.20;99.90;;;;;;5098227;27;20043;-78
2022/03/24 08:12:49;;;;;;;51.45;38.88;;;9.40;99.90;;;;;;5132195;27;20935;-78
2022/03/24 08:15:15;;;;;;;54.85;43.53;;;9.40;99.90;;;;;;5096487;27;20825;-79
2022/03/24 08:17:40;;;;;;;57.27;42.87;;;9.50;99.90;;;;;;5113850;27;20403;-78
2022/03/24 08:20:07;;;;;;;57.75;43.63;;;9.70;99.90;;;;;;5113434;27;20410;-78
2022/03/24 08:22:33;;;;;;;55.65;45.22;;;9.80;99.90;;;;;;5114138;27;20407;-78
2022/03/24 08:24:59;;;;;;;53.00;38.42;;;9.80;99.90;;;;;;5133238;27;20501;-78
2022/03/24 08:27:25;;;;;;;53.47;37.13;;;9.90;99.90;;;;;;5114658;27;20569;-77
2022/03/24 08:29:51;;;;;;;52.10;37.42;;;10.00;99.90;;;;;;5132751;27;20047;-77
2022/03/24 08:32:17;;;;;;;57.30;38.42;;;10.10;99.90;;;;;;5133254;27;20088;-77
2022/03/24 08:34:42;;;;;;;56.00;37.22;;;10.20;99.90;;;;;;5114894;27;20044;-78
2022/03/24 08:37:08;;;;;;;55.88;38.47;;;10.30;99.90;;;;;;5131540;27;20043;-77
2022/03/24 08:39:34;;;;;;;52.22;36.90;;;10.40;99.90;;;;;;5133084;27;20536;-78
2022/03/24 08:41:59;;;;;;;50.70;34.20;;;10.40;99.90;;;;;;5098020;27;20039;-77
2022/03/24 08:44:25;;;;;;;51.90;36.40;;;10.50;99.90;;;;;;5132754;27;20061;-77
2022/03/24 08:46:51;;;;;;;54.70;35.50;;;10.60;99.90;;;;;;5132296;27;20087;-77
2022/03/24 08:49:18;;;;;;;53.38;36.25;;;10.70;99.90;;;;;;5131840;27;20100;-77
2022/03/24 08:51:45;;;;;;;48.88;34.05;;;10.80;99.90;;;;;;5133174;27;20058;-77
2022/03/24 08:54:10;;;;;;;57.28;33.70;;;10.80;99.90;;;;;;5132188;27;20129;-77
2022/03/24 08:56:36;;;;;;;53.60;34.00;;;10.90;99.90;;;;;;5121811;27;20139;-78
2022/03/24 08:59:02;;;;;;;56.38;34.63;;;11.00;99.90;;;;;;5112281;28;20075;-78
2022/03/24 09:01:28;;;;;;;51.15;33.50;;;11.10;99.90;;;;;;5112233;28;20082;-77
2022/03/24 09:03:54;;;;;;;54.13;35.28;;;11.20;99.90;;;;;;5111152;28;20073;-78
2022/03/24 09:06:21;;;;;;;53.17;35.42;;;11.20;99.90;;;;;;5112173;28;20039;-78
2022/03/24 09:08:47;;;;;;;51.70;34.67;;;11.30;99.90;;;;;;5094117;28;20047;-78
2022/03/24 09:11:13;;;;;;;50.60;35.85;;;11.50;99.90;;;;;;5093414;28;20054;-78
2022/03/24 09:13:39;;;;;;;48.72;34.00;;;11.60;99.90;;;;;;5093550;28;20736;-78
2022/03/24 09:16:06;;;;;;;50.08;34.92;;;11.70;99.90;;;;;;5093679;28;20508;-78
2022/03/24 09:18:33;;;;;;;52.08;41.70;;;11.80;99.90;;;;;;5092349;28;20412;-78
2022/03/24 09:20:58;;;;;;;54.30;43.33;;;11.90;99.90;;;;;;5091918;28;21262;-78
2022/03/24 09:23:26;;;;;;;49.70;41.38;;;12.10;99.90;;;;;;5092110;28;20431;-78
2022/03/24 09:25:53;;;;;;;51.27;42.53;;;12.80;99.90;;;;;;5091841;28;20496;-78
2022/03/24 09:28:19;;;;;;;51.08;43.60;;;13.70;99.90;;;;;;5091608;28;20403;-78
2022/03/24 09:30:45;;;;;;;49.22;41.53;;;14.60;99.90;;;;;;5091759;28;20404;-78
2022/03/24 09:33:11;;;;;;;47.93;40.37;;;15.50;99.90;;;;;;5091438;28;20409;-79
2022/03/24 09:35:37;;;;;;;46.20;39.63;;;16.00;98.70;;;;;;5092075;28;20449;-79
2022/03/24 09:38:03;;;;;;;47.28;37.63;;;16.70;97.20;;;;;;5091089;28;20793;-79
2022/03/24 09:40:29;;;;;;;46.17;37.72;;;17.20;94.50;;;;;;5091149;28;20404;-79
2022/03/24 09:42:57;;;;;;;48.70;41.10;;;17.60;91.80;;;;;;5110127;28;20486;-79
2022/03/24 09:45:25;;;;;;;46.00;40.53;;;17.90;91.20;;;;;;5092074;28;20802;-79
2022/03/24 09:47:50;;;;;;;44.33;39.58;;;18.20;90.80;;;;;;5109291;28;20412;-79
2022/03/24 09:50:18;;;;;;;44.65;39.78;;;18.50;89.90;;;;;;5091324;28;20401;-79
2022/03/24 09:52:44;;;;;;;46.95;41.47;;;18.80;85.50;;;;;;5110005;28;20932;-79
2022/03/24 09:55:09;;;;;;;;;;;19.00;87.10;;;;;;5076148;28;20043;-79
2022/03/24 09:57:36;;;;;;;;;;;19.30;87.80;;;;;;5130123;27;19920;-79
2022/03/24 10:00:03;;;;;;;;;;;19.50;83.50;;;;;;5132031;27;19923;-79
2022/03/24 10:02:29;;;;;;;;;;;19.60;79.60;;;;;;5131918;27;19919;-79
2022/03/24 10:05:08;;;;;;;;;;;19.80;78.30;;;;;;5131931;27;20344;-79
2022/03/24 10:07:47;;;;;;;;;;;19.90;76.80;;;;;;5131948;27;19920;-79
2022/03/24 10:10:26;;;;;;;;;;;20.30;74.50;;;;;;5131629;27;19923;-79
2022/03/24 10:12:51;;;;;;;;;;;20.50;71.30;;;;;;5130588;27;19919;-79
2022/03/24 10:15:17;;;;;;;;;;;20.80;71.90;;;;;;5130360;27;19930;-79
2022/03/24 10:17:50;;;;;;;;;;;20.90;68.10;;;;;;5112761;27;19923;-79
2022/03/24 10:20:15;;;;;;;;;;;21.10;67.30;;;;;;5130620;27;19919;-79
2022/03/24 10:22:55;;;;;;;;;;;21.10;64.10;;;;;;5130222;27;19923;-79
2022/03/24 10:25:22;;;;;;;;;;;21.30;65.30;;;;;;5130483;27;19923;-79
2022/03/24 10:27:51;;;;;;;;;;;21.50;63.80;;;;;;5130298;27;19923;-79
2022/03/24 10:30:16;;;;;;;;;;;21.60;60.80;;;;;;5130488;27;20005;-79
2022/03/24 10:32:53;;;;;;;;;;;21.70;61.50;;;;;;5130435;27;20019;-79
2022/03/24 10:35:18;;;;;;;;;;;21.70;60.70;;;;;;5130630;27;19979;-79
2022/03/24 10:37:48;;;;;;;;;;;21.90;61.10;;;;;;5130382;27;20626;-79
2022/03/24 10:40:14;;;;;;;;;;;22.10;60.80;;;;;;5129896;27;19946;-79
2022/03/24 10:42:40;;;;;;;;;;;22.20;61.00;;;;;;5130649;27;20393;-79
2022/03/24 10:45:07;;;;;;;;;;;22.30;60.60;;;;;;5111679;27;19964;-79
2022/03/24 10:47:42;;;;;;;;;;;22.40;59.40;;;;;;5129214;27;20293;-79
2022/03/24 10:50:28;;;;;;;;;;;22.30;60.00;;;;;;5094326;27;20474;-79
2022/03/24 10:52:54;;;;;;;;;;;22.40;59.60;;;;;;5129865;27;20027;-79
2022/03/24 10:55:31;;;;;;;;;;;22.40;60.40;;;;;;5129539;27;19923;-79
2022/03/24 10:57:58;;;;;;;;;;;22.50;59.20;;;;;;5091278;28;19930;-79
2022/03/24 11:00:23;;;;;;;;;;;22.60;58.20;;;;;;5109748;28;20316;-79
2022/03/24 11:02:49;;;;;;;;;;;22.60;57.40;;;;;;5092318;28;19924;-79
2022/03/24 11:05:15;;;;;;;;;;;22.60;56.80;;;;;;5110063;28;20104;-79
2022/03/24 11:07:40;;;;;;;;;;;22.60;56.20;;;;;;5109755;28;19924;-79
2022/03/24 11:10:12;;;;;;;;;;;22.60;56.60;;;;;;5091022;28;19939;-79
2022/03/24 11:12:39;;;;;;;;;;;22.70;56.80;;;;;;5109103;28;19966;-79
2022/03/24 11:15:07;;;;;;;;;;;22.90;56.90;;;;;;5109091;28;19924;-79
2022/03/24 11:17:37;;;;;;;;;;;23.10;56.40;;;;;;5091281;28;19924;-79
2022/03/24 11:20:06;;;;;;;;;;;23.40;55.10;;;;;;5091027;28;19935;-79
2022/03/24 11:22:42;;;;;;;;;;;23.40;55.80;;;;;;5090721;28;20382;-79
2022/03/24 11:25:09;;;;;;;;;;;23.60;55.70;;;;;;5108699;28;19924;-79
2022/03/24 11:27:34;;;;;;;;;;;23.70;55.80;;;;;;5109079;28;19935;-78
2022/03/24 11:30:00;;;;;;;;;;;23.70;53.90;;;;;;5090908;28;19924;-78
2022/03/24 11:32:26;;;;;;;;;;;23.50;54.00;;;;;;5109023;28;19966;-79
2022/03/24 11:34:53;;;;;;;;;;;23.50;54.90;;;;;;5109082;28;20381;-78
2022/03/24 11:37:18;;;;;;;;;;;23.50;55.50;;;;;;5108982;28;20411;-78
2022/03/24 11:40:00;;;;;;;;;;;23.50;55.00;;;;;;5090629;28;19927;-79
2022/03/24 11:42:26;;;;;;;;;;;23.60;55.20;;;;;;5090816;28;20645;-78
2022/03/24 11:44:58;;;;;;;;;;;23.60;55.90;;;;;;5090469;28;20015;-78
2022/03/24 11:47:25;;;;;;;;;;;23.70;55.70;;;;;;5073975;28;20030;-78
2022/03/24 11:50:07;;;;;;;;;;;23.80;53.70;;;;;;5108728;28;19931;-78
2022/03/24 11:52:32;;;;;;;;;;;23.80;51.90;;;;;;5090605;28;19931;-78
2022/03/24 11:54:58;;;;;;;;;;;23.70;49.70;;;;;;5090811;28;19924;-78
2022/03/24 11:57:27;;;;;;;;;;;23.60;50.30;;;;;;5109022;28;19999;-78
2022/03/24 12:00:11;;;;;;;;;;;23.20;50.00;;;;;;5111889;28;19923;-78
2022/03/24 12:02:37;;;;;;;;;;;23.00;49.90;;;;;;5111572;28;19924;-78
2022/03/24 12:05:03;;;;;;;;;;;23.00;50.20;;;;;;5111788;28;19938;-78
2022/03/24 12:07:29;;;;;;;;;;;23.30;50.40;;;;;;5111700;28;19931;-78
2022/03/24 12:10:02;;;;;;;;;;;23.30;45.10;;;;;;5111295;28;19972;-78
2022/03/24 12:12:28;;;;;;;;;;;23.00;46.10;;;;;;5094646;28;19923;-78
2022/03/24 12:14:54;;;;;;;;;;;23.00;45.70;;;;;;5111809;28;19969;-78
2022/03/24 12:17:25;;;;;;;;;;;23.20;44.50;;;;;;5130458;28;19993;-78
2022/03/24 12:19:55;;;;;;;;;;;23.10;43.50;;;;;;5094682;28;19930;-78
2022/03/24 12:22:28;;;;;;;;;;;23.00;42.50;;;;;;5133560;27;19928;-78
2022/03/24 12:25:00;;;;;;;;;;;22.90;43.00;;;;;;5133639;27;19924;-78
2022/03/24 12:27:26;;;;;;;;;;;22.90;42.40;;;;;;5114851;27;20022;-78
2022/03/24 12:30:11;;;;;;;;;;;22.80;42.20;;;;;;5133248;27;19952;-78
2022/03/24 12:32:36;;;;;;;;;;;22.80;40.60;;;;;;5098390;27;19929;-78
2022/03/24 12:35:03;;;;;;;;;;;22.60;40.60;;;;;;5115121;27;20046;-78
2022/03/24 12:37:32;;;;;;;;;;;22.50;40.40;;;;;;5114356;27;19924;-78
2022/03/24 12:40:05;;;;;;;;;;;22.50;42.20;;;;;;5111014;28;20064;-78
2022/03/24 12:42:45;;;;;;;;;;;22.70;42.00;;;;;;5094665;28;19931;-78
2022/03/24 12:45:16;;;;;;;;;;;22.90;43.50;;;;;;5111305;28;19924;-78
2022/03/24 12:47:42;;;;;;;;;;;23.20;44.30;;;;;;5112973;28;19947;-78
2022/03/24 12:50:17;;;;;;;;;;;23.20;41.00;;;;;;5112860;28;19967;-77
2022/03/24 12:52:58;;;;;;;;;;;23.10;42.00;;;;;;5111816;28;19950;-77
2022/03/24 12:55:26;;;;;;;;;;;23.00;40.90;;;;;;5110415;28;19981;-78
2022/03/24 12:58:18;;;;;;;;;;;23.20;39.60;;;;;;5090890;28;20455;-78
2022/03/24 13:00:45;;;;;;;;;;;23.30;41.10;;;;;;5086889;28;19931;-77
2022/03/24 13:03:11;;;;;;;;;;;23.30;40.50;;;;;;5090843;28;19928;-77
2022/03/24 13:05:37;;;;;;;;;;;23.40;40.60;;;;;;5091376;28;20697;-77
2022/03/24 13:08:05;;;;;;;;;;;23.60;41.40;;;;;;5092249;28;19931;-78